sensor_id;sensor_type;location;lat;lon;timestamp;P1;durP1;ratioP1;P2;durP2;ratioP2
48040;SDS011;33815;48.386;11.738;2023-04-03T00:00:52;4.32;;;3.28;;
48040;SDS011;33815;48.386;11.738;2023-04-03T00:03:17;4.72;;;3.08;;
48040;SDS011;33815;48.386;11.738;2023-04-03T00:05:43;5.95;;;3.35;;
48040;SDS011;33815;48.386;11.738;2023-04-03T00:08:08;4.03;;;3.20;;
48040;SDS011;33815;48.386;11.738;2023-04-03T00:10:34;3.65;;;3.35;;
48040;SDS011;33815;48.386;11.738;2023-04-03T00:13:00;5.80;;;3.00;;
48040;SDS011;33815;48.386;11.738;2023-04-03T00:15:26;3.38;;;3.08;;
48040;SDS011;33815;48.386;11.738;2023-04-03T00:17:51;3.20;;;2.90;;
48040;SDS011;33815;48.386;11.738;2023-04-03T00:20:16;3.85;;;2.85;;
48040;SDS011;33815;48.386;11.738;2023-04-03T00:22:41;4.93;;;3.17;;
48040;SDS011;33815;48.386;11.738;2023-04-03T00:25:07;5.07;;;3.45;;
48040;SDS011;33815;48.386;11.738;2023-04-03T00:27:32;5.25;;;3.75;;
48040;SDS011;33815;48.386;11.738;2023-04-03T00:29:58;4.13;;;3.35;;
48040;SDS011;33815;48.386;11.738;2023-04-03T00:32:23;4.30;;;2.90;;
48040;SDS011;33815;48.386;11.738;2023-04-03T00:34:48;5.53;;;3.13;;
48040;SDS011;33815;48.386;11.738;2023-04-03T00:37:14;4.70;;;3.40;;
48040;SDS011;33815;48.386;11.738;2023-04-03T00:39:39;4.63;;;3.13;;
48040;SDS011;33815;48.386;11.738;2023-04-03T00:42:04;4.03;;;3.35;;
48040;SDS011;33815;48.386;11.738;2023-04-03T00:46:58;2.95;;;2.67;;
48040;SDS011;33815;48.386;11.738;2023-04-03T00:49:25;3.17;;;2.97;;
48040;SDS011;33815;48.386;11.738;2023-04-03T00:51:51;3.45;;;3.15;;
48040;SDS011;33815;48.386;11.738;2023-04-03T00:54:17;3.33;;;2.65;;
48040;SDS011;33815;48.386;11.738;2023-04-03T00:56:42;3.42;;;3.00;;
48040;SDS011;33815;48.386;11.738;2023-04-03T00:59:10;4.40;;;3.53;;
48040;SDS011;33815;48.386;11.738;2023-04-03T01:01:39;3.65;;;3.35;;
48040;SDS011;33815;48.386;11.738;2023-04-03T01:04:05;3.15;;;2.85;;
48040;SDS011;33815;48.386;11.738;2023-04-03T01:06:35;3.33;;;2.83;;
48040;SDS011;33815;48.386;11.738;2023-04-03T01:09:02;4.13;;;3.10;;
48040;SDS011;33815;48.386;11.738;2023-04-03T01:11:28;2.38;;;2.17;;
48040;SDS011;33815;48.386;11.738;2023-04-03T01:13:53;6.20;;;2.80;;
48040;SDS011;33815;48.386;11.738;2023-04-03T01:16:19;3.20;;;2.30;;
48040;SDS011;33815;48.386;11.738;2023-04-03T01:18:44;2.70;;;2.50;;
48040;SDS011;33815;48.386;11.738;2023-04-03T01:21:20;4.30;;;2.42;;
48040;SDS011;33815;48.386;11.738;2023-04-03T01:23:53;3.22;;;2.40;;
48040;SDS011;33815;48.386;11.738;2023-04-03T01:26:22;3.20;;;2.65;;
48040;SDS011;33815;48.386;11.738;2023-04-03T01:28:47;2.70;;;2.47;;
48040;SDS011;33815;48.386;11.738;2023-04-03T01:31:15;2.78;;;2.58;;
48040;SDS011;33815;48.386;11.738;2023-04-03T01:33:47;3.22;;;2.92;;
48040;SDS011;33815;48.386;11.738;2023-04-03T01:36:17;3.17;;;2.67;;
48040;SDS011;33815;48.386;11.738;2023-04-03T01:38:45;2.83;;;2.22;;
48040;SDS011;33815;48.386;11.738;2023-04-03T01:41:11;3.28;;;2.92;;
48040;SDS011;33815;48.386;11.738;2023-04-03T01:43:36;3.30;;;2.40;;
48040;SDS011;33815;48.386;11.738;2023-04-03T01:46:01;2.90;;;2.70;;
48040;SDS011;33815;48.386;11.738;2023-04-03T01:48:27;2.80;;;2.60;;
48040;SDS011;33815;48.386;11.738;2023-04-03T01:50:52;3.75;;;2.33;;
48040;SDS011;33815;48.386;11.738;2023-04-03T01:53:18;3.33;;;2.90;;
48040;SDS011;33815;48.386;11.738;2023-04-03T01:55:43;2.80;;;2.60;;
48040;SDS011;33815;48.386;11.738;2023-04-03T01:58:08;2.40;;;2.20;;
48040;SDS011;33815;48.386;11.738;2023-04-03T02:00:34;2.88;;;2.53;;
48040;SDS011;33815;48.386;11.738;2023-04-03T02:02:59;2.95;;;2.65;;
48040;SDS011;33815;48.386;11.738;2023-04-03T02:05:25;3.03;;;2.65;;
48040;SDS011;33815;48.386;11.738;2023-04-03T02:07:50;2.83;;;2.63;;
48040;SDS011;33815;48.386;11.738;2023-04-03T02:10:15;3.03;;;2.17;;
48040;SDS011;33815;48.386;11.738;2023-04-03T02:12:41;4.18;;;2.88;;
48040;SDS011;33815;48.386;11.738;2023-04-03T02:15:06;4.00;;;2.97;;
48040;SDS011;33815;48.386;11.738;2023-04-03T02:17:32;3.65;;;2.65;;
48040;SDS011;33815;48.386;11.738;2023-04-03T02:19:57;4.10;;;2.75;;
48040;SDS011;33815;48.386;11.738;2023-04-03T02:22:22;3.13;;;2.60;;
48040;SDS011;33815;48.386;11.738;2023-04-03T02:24:48;2.85;;;2.65;;
48040;SDS011;33815;48.386;11.738;2023-04-03T02:27:13;3.50;;;2.33;;
48040;SDS011;33815;48.386;11.738;2023-04-03T02:29:39;3.13;;;2.83;;
48040;SDS011;33815;48.386;11.738;2023-04-03T02:32:05;4.30;;;2.85;;
48040;SDS011;33815;48.386;11.738;2023-04-03T02:34:30;2.95;;;2.65;;
48040;SDS011;33815;48.386;11.738;2023-04-03T02:36:55;2.70;;;2.50;;
48040;SDS011;33815;48.386;11.738;2023-04-03T02:39:20;3.38;;;2.50;;
48040;SDS011;33815;48.386;11.738;2023-04-03T02:41:46;4.60;;;2.80;;
48040;SDS011;33815;48.386;11.738;2023-04-03T02:44:11;2.75;;;2.50;;
48040;SDS011;33815;48.386;11.738;2023-04-03T02:46:37;3.50;;;3.08;;
48040;SDS011;33815;48.386;11.738;2023-04-03T02:49:02;3.40;;;3.10;;
48040;SDS011;33815;48.386;11.738;2023-04-03T02:51:28;5.30;;;2.90;;
48040;SDS011;33815;48.386;11.738;2023-04-03T02:53:53;4.05;;;3.13;;
48040;SDS011;33815;48.386;11.738;2023-04-03T02:56:18;3.17;;;2.92;;
48040;SDS011;33815;48.386;11.738;2023-04-03T02:58:45;4.55;;;2.92;;
48040;SDS011;33815;48.386;11.738;2023-04-03T03:01:10;4.03;;;2.80;;
48040;SDS011;33815;48.386;11.738;2023-04-03T03:03:36;3.17;;;2.63;;
48040;SDS011;33815;48.386;11.738;2023-04-03T03:06:06;4.10;;;2.20;;
48040;SDS011;33815;48.386;11.738;2023-04-03T03:08:33;3.97;;;3.03;;
48040;SDS011;33815;48.386;11.738;2023-04-03T03:10:59;5.47;;;2.70;;
48040;SDS011;33815;48.386;11.738;2023-04-03T03:13:25;3.13;;;2.88;;
48040;SDS011;33815;48.386;11.738;2023-04-03T03:15:51;6.00;;;2.92;;
48040;SDS011;33815;48.386;11.738;2023-04-03T03:18:16;3.75;;;3.10;;
48040;SDS011;33815;48.386;11.738;2023-04-03T03:20:41;6.53;;;3.20;;
48040;SDS011;33815;48.386;11.738;2023-04-03T03:23:07;4.63;;;3.10;;
48040;SDS011;33815;48.386;11.738;2023-04-03T03:25:32;2.72;;;2.53;;
48040;SDS011;33815;48.386;11.738;2023-04-03T03:27:57;3.25;;;2.88;;
48040;SDS011;33815;48.386;11.738;2023-04-03T03:30:22;4.30;;;3.30;;
48040;SDS011;33815;48.386;11.738;2023-04-03T03:32:48;4.28;;;3.17;;
48040;SDS011;33815;48.386;11.738;2023-04-03T03:35:13;4.72;;;3.13;;
48040;SDS011;33815;48.386;11.738;2023-04-03T03:37:38;3.03;;;2.80;;
48040;SDS011;33815;48.386;11.738;2023-04-03T03:40:04;4.90;;;3.38;;
48040;SDS011;33815;48.386;11.738;2023-04-03T03:42:30;4.00;;;3.05;;
48040;SDS011;33815;48.386;11.738;2023-04-03T03:44:55;3.95;;;3.40;;
48040;SDS011;33815;48.386;11.738;2023-04-03T03:47:20;4.65;;;3.58;;
48040;SDS011;33815;48.386;11.738;2023-04-03T03:49:45;5.10;;;3.88;;
48040;SDS011;33815;48.386;11.738;2023-04-03T03:52:11;6.22;;;3.90;;
48040;SDS011;33815;48.386;11.738;2023-04-03T03:54:36;4.22;;;3.28;;
48040;SDS011;33815;48.386;11.738;2023-04-03T03:57:02;3.17;;;2.90;;
48040;SDS011;33815;48.386;11.738;2023-04-03T03:59:28;4.35;;;3.40;;
48040;SDS011;33815;48.386;11.738;2023-04-03T04:01:53;4.72;;;3.33;;
48040;SDS011;33815;48.386;11.738;2023-04-03T04:04:18;4.90;;;3.30;;
48040;SDS011;33815;48.386;11.738;2023-04-03T04:06:44;4.50;;;3.28;;
48040;SDS011;33815;48.386;11.738;2023-04-03T04:09:10;3.40;;;3.05;;
48040;SDS011;33815;48.386;11.738;2023-04-03T04:11:35;3.58;;;3.03;;
48040;SDS011;33815;48.386;11.738;2023-04-03T04:14:00;4.00;;;3.50;;
48040;SDS011;33815;48.386;11.738;2023-04-03T04:16:25;4.90;;;3.13;;
48040;SDS011;33815;48.386;11.738;2023-04-03T04:18:51;5.95;;;4.18;;
48040;SDS011;33815;48.386;11.738;2023-04-03T04:21:16;5.07;;;3.47;;
48040;SDS011;33815;48.386;11.738;2023-04-03T04:23:41;4.18;;;2.97;;
48040;SDS011;33815;48.386;11.738;2023-04-03T04:26:06;4.20;;;3.33;;
48040;SDS011;33815;48.386;11.738;2023-04-03T04:28:32;7.55;;;3.88;;
48040;SDS011;33815;48.386;11.738;2023-04-03T04:30:57;3.35;;;3.05;;
48040;SDS011;33815;48.386;11.738;2023-04-03T04:33:22;5.07;;;3.42;;
48040;SDS011;33815;48.386;11.738;2023-04-03T04:35:48;4.15;;;3.40;;
48040;SDS011;33815;48.386;11.738;2023-04-03T04:38:13;5.28;;;3.42;;
48040;SDS011;33815;48.386;11.738;2023-04-03T04:40:38;3.42;;;3.10;;
48040;SDS011;33815;48.386;11.738;2023-04-03T04:43:05;4.75;;;3.15;;
48040;SDS011;33815;48.386;11.738;2023-04-03T04:45:30;7.88;;;3.08;;
48040;SDS011;33815;48.386;11.738;2023-04-03T04:47:56;5.13;;;4.10;;
48040;SDS011;33815;48.386;11.738;2023-04-03T04:50:22;4.30;;;3.47;;
48040;SDS011;33815;48.386;11.738;2023-04-03T04:52:47;6.15;;;3.42;;
48040;SDS011;33815;48.386;11.738;2023-04-03T04:55:12;5.60;;;3.70;;
48040;SDS011;33815;48.386;11.738;2023-04-03T04:57:38;3.63;;;3.17;;
48040;SDS011;33815;48.386;11.738;2023-04-03T05:00:03;5.60;;;3.42;;
48040;SDS011;33815;48.386;11.738;2023-04-03T05:02:29;5.60;;;3.80;;
48040;SDS011;33815;48.386;11.738;2023-04-03T05:04:55;4.40;;;3.75;;
48040;SDS011;33815;48.386;11.738;2023-04-03T05:07:21;4.68;;;3.60;;
48040;SDS011;33815;48.386;11.738;2023-04-03T05:09:46;4.40;;;3.63;;
48040;SDS011;33815;48.386;11.738;2023-04-03T05:12:12;5.47;;;3.70;;
48040;SDS011;33815;48.386;11.738;2023-04-03T05:14:37;5.80;;;3.67;;
48040;SDS011;33815;48.386;11.738;2023-04-03T05:17:02;4.38;;;3.75;;
48040;SDS011;33815;48.386;11.738;2023-04-03T05:19:27;6.15;;;3.72;;
48040;SDS011;33815;48.386;11.738;2023-04-03T05:21:53;4.22;;;3.85;;
48040;SDS011;33815;48.386;11.738;2023-04-03T05:24:18;4.18;;;3.65;;
48040;SDS011;33815;48.386;11.738;2023-04-03T05:26:43;4.30;;;3.53;;
48040;SDS011;33815;48.386;11.738;2023-04-03T05:29:09;4.88;;;3.65;;
48040;SDS011;33815;48.386;11.738;2023-04-03T05:31:35;4.15;;;3.65;;
48040;SDS011;33815;48.386;11.738;2023-04-03T05:34:00;6.75;;;3.67;;
48040;SDS011;33815;48.386;11.738;2023-04-03T05:36:26;6.22;;;3.67;;
48040;SDS011;33815;48.386;11.738;2023-04-03T05:38:52;6.13;;;3.63;;
48040;SDS011;33815;48.386;11.738;2023-04-03T05:41:17;5.82;;;3.55;;
48040;SDS011;33815;48.386;11.738;2023-04-03T05:43:43;4.63;;;3.40;;
48040;SDS011;33815;48.386;11.738;2023-04-03T05:46:12;5.88;;;3.92;;
48040;SDS011;33815;48.386;11.738;2023-04-03T05:48:38;5.25;;;4.13;;
48040;SDS011;33815;48.386;11.738;2023-04-03T05:51:04;7.88;;;4.35;;
48040;SDS011;33815;48.386;11.738;2023-04-03T05:53:31;7.97;;;4.25;;
48040;SDS011;33815;48.386;11.738;2023-04-03T05:56:00;4.57;;;4.15;;
48040;SDS011;33815;48.386;11.738;2023-04-03T05:58:25;5.10;;;4.05;;
48040;SDS011;33815;48.386;11.738;2023-04-03T06:00:50;6.40;;;4.35;;
48040;SDS011;33815;48.386;11.738;2023-04-03T06:03:16;4.35;;;3.92;;
48040;SDS011;33815;48.386;11.738;2023-04-03T06:05:41;4.40;;;3.85;;
48040;SDS011;33815;48.386;11.738;2023-04-03T06:08:07;4.20;;;3.78;;
48040;SDS011;33815;48.386;11.738;2023-04-03T06:10:34;4.68;;;3.55;;
48040;SDS011;33815;48.386;11.738;2023-04-03T06:13:00;8.20;;;4.05;;
48040;SDS011;33815;48.386;11.738;2023-04-03T06:15:25;5.63;;;3.30;;
48040;SDS011;33815;48.386;11.738;2023-04-03T06:17:51;6.50;;;4.00;;
48040;SDS011;33815;48.386;11.738;2023-04-03T06:20:16;5.35;;;4.20;;
48040;SDS011;33815;48.386;11.738;2023-04-03T06:22:41;6.95;;;3.97;;
48040;SDS011;33815;48.386;11.738;2023-04-03T06:25:07;10.82;;;4.97;;
48040;SDS011;33815;48.386;11.738;2023-04-03T06:27:33;6.40;;;3.85;;
48040;SDS011;33815;48.386;11.738;2023-04-03T06:29:58;5.35;;;4.03;;
48040;SDS011;33815;48.386;11.738;2023-04-03T06:32:23;6.13;;;4.00;;
48040;SDS011;33815;48.386;11.738;2023-04-03T06:34:48;4.30;;;3.80;;
48040;SDS011;33815;48.386;11.738;2023-04-03T06:37:17;4.82;;;4.07;;
48040;SDS011;33815;48.386;11.738;2023-04-03T06:39:45;6.10;;;4.15;;
48040;SDS011;33815;48.386;11.738;2023-04-03T06:42:10;4.80;;;4.10;;
48040;SDS011;33815;48.386;11.738;2023-04-03T06:44:36;5.03;;;3.88;;
48040;SDS011;33815;48.386;11.738;2023-04-03T06:47:01;6.55;;;4.25;;
48040;SDS011;33815;48.386;11.738;2023-04-03T06:49:27;6.93;;;3.83;;
48040;SDS011;33815;48.386;11.738;2023-04-03T06:51:53;8.25;;;3.90;;
48040;SDS011;33815;48.386;11.738;2023-04-03T06:54:19;3.97;;;3.53;;
48040;SDS011;33815;48.386;11.738;2023-04-03T06:56:44;6.28;;;4.07;;
48040;SDS011;33815;48.386;11.738;2023-04-03T06:59:10;7.35;;;4.03;;
48040;SDS011;33815;48.386;11.738;2023-04-03T07:01:38;4.43;;;3.75;;
48040;SDS011;33815;48.386;11.738;2023-04-03T07:04:04;7.70;;;4.20;;
48040;SDS011;33815;48.386;11.738;2023-04-03T07:06:30;4.35;;;3.92;;
48040;SDS011;33815;48.386;11.738;2023-04-03T07:08:57;6.70;;;4.18;;
48040;SDS011;33815;48.386;11.738;2023-04-03T07:11:22;7.75;;;4.28;;
48040;SDS011;33815;48.386;11.738;2023-04-03T07:13:48;4.53;;;3.47;;
48040;SDS011;33815;48.386;11.738;2023-04-03T07:16:14;5.18;;;3.80;;
48040;SDS011;33815;48.386;11.738;2023-04-03T07:18:40;6.05;;;4.25;;
48040;SDS011;33815;48.386;11.738;2023-04-03T07:21:06;5.88;;;3.55;;
48040;SDS011;33815;48.386;11.738;2023-04-03T07:23:32;5.95;;;3.40;;
48040;SDS011;33815;48.386;11.738;2023-04-03T07:25:57;3.33;;;2.92;;
48040;SDS011;33815;48.386;11.738;2023-04-03T07:28:22;4.70;;;3.38;;
48040;SDS011;33815;48.386;11.738;2023-04-03T07:30:52;3.85;;;3.33;;
48040;SDS011;33815;48.386;11.738;2023-04-03T07:33:20;3.88;;;3.40;;
48040;SDS011;33815;48.386;11.738;2023-04-03T07:35:47;6.18;;;3.53;;
48040;SDS011;33815;48.386;11.738;2023-04-03T07:38:13;4.53;;;3.42;;
48040;SDS011;33815;48.386;11.738;2023-04-03T07:40:39;4.40;;;3.25;;
48040;SDS011;33815;48.386;11.738;2023-04-03T07:43:05;4.18;;;3.35;;
48040;SDS011;33815;48.386;11.738;2023-04-03T07:45:31;4.95;;;3.42;;
48040;SDS011;33815;48.386;11.738;2023-04-03T07:47:59;7.03;;;3.75;;
48040;SDS011;33815;48.386;11.738;2023-04-03T07:50:25;7.10;;;4.55;;
48040;SDS011;33815;48.386;11.738;2023-04-03T07:52:52;5.10;;;3.15;;
48040;SDS011;33815;48.386;11.738;2023-04-03T07:55:19;4.85;;;3.55;;
48040;SDS011;33815;48.386;11.738;2023-04-03T07:57:44;5.00;;;4.50;;
48040;SDS011;33815;48.386;11.738;2023-04-03T08:00:10;8.38;;;4.15;;
48040;SDS011;33815;48.386;11.738;2023-04-03T08:02:37;4.95;;;3.00;;
48040;SDS011;33815;48.386;11.738;2023-04-03T08:05:02;3.58;;;3.20;;
48040;SDS011;33815;48.386;11.738;2023-04-03T08:07:27;4.65;;;3.13;;
48040;SDS011;33815;48.386;11.738;2023-04-03T08:09:52;5.67;;;3.47;;
48040;SDS011;33815;48.386;11.738;2023-04-03T08:12:18;8.02;;;3.45;;
48040;SDS011;33815;48.386;11.738;2023-04-03T08:14:43;6.40;;;3.38;;
48040;SDS011;33815;48.386;11.738;2023-04-03T08:17:09;5.05;;;3.33;;
48040;SDS011;33815;48.386;11.738;2023-04-03T08:19:36;5.90;;;3.97;;
48040;SDS011;33815;48.386;11.738;2023-04-03T08:22:02;5.45;;;3.20;;
48040;SDS011;33815;48.386;11.738;2023-04-03T08:24:28;3.63;;;3.13;;
48040;SDS011;33815;48.386;11.738;2023-04-03T08:26:54;3.20;;;2.90;;
48040;SDS011;33815;48.386;11.738;2023-04-03T08:29:20;5.72;;;2.85;;
48040;SDS011;33815;48.386;11.738;2023-04-03T08:31:46;6.47;;;3.55;;
48040;SDS011;33815;48.386;11.738;2023-04-03T08:34:11;7.22;;;3.45;;
48040;SDS011;33815;48.386;11.738;2023-04-03T08:36:38;4.82;;;3.63;;
48040;SDS011;33815;48.386;11.738;2023-04-03T08:39:03;4.53;;;3.38;;
48040;SDS011;33815;48.386;11.738;2023-04-03T08:41:36;5.38;;;3.75;;
48040;SDS011;33815;48.386;11.738;2023-04-03T08:52:10;3.10;;;2.83;;
48040;SDS011;33815;48.386;11.738;2023-04-03T08:54:41;3.72;;;3.33;;
48040;SDS011;33815;48.386;11.738;2023-04-03T08:57:15;5.90;;;3.20;;
48040;SDS011;33815;48.386;11.738;2023-04-03T08:59:42;3.38;;;2.78;;
48040;SDS011;33815;48.386;11.738;2023-04-03T09:04:58;4.47;;;2.80;;
48040;SDS011;33815;48.386;11.738;2023-04-03T09:07:27;3.13;;;2.80;;
48040;SDS011;33815;48.386;11.738;2023-04-03T09:09:59;4.20;;;2.95;;
48040;SDS011;33815;48.386;11.738;2023-04-03T09:12:33;4.53;;;2.92;;
48040;SDS011;33815;48.386;11.738;2023-04-03T09:26:01;4.72;;;2.72;;
48040;SDS011;33815;48.386;11.738;2023-04-03T09:28:30;3.53;;;2.33;;
48040;SDS011;33815;48.386;11.738;2023-04-03T09:31:00;3.67;;;2.03;;
48040;SDS011;33815;48.386;11.738;2023-04-03T09:33:25;3.30;;;2.13;;
48040;SDS011;33815;48.386;11.738;2023-04-03T09:35:52;2.45;;;2.00;;
48040;SDS011;33815;48.386;11.738;2023-04-03T09:38:19;2.73;;;1.97;;
48040;SDS011;33815;48.386;11.738;2023-04-03T09:40:50;3.40;;;1.73;;
48040;SDS011;33815;48.386;11.738;2023-04-03T09:43:29;3.70;;;3.20;;
48040;SDS011;33815;48.386;11.738;2023-04-03T09:45:57;4.28;;;2.40;;
48040;SDS011;33815;48.386;11.738;2023-04-03T09:48:49;3.92;;;1.95;;
48040;SDS011;33815;48.386;11.738;2023-04-03T09:51:16;5.32;;;2.00;;
48040;SDS011;33815;48.386;11.738;2023-04-03T09:53:42;2.63;;;1.92;;
48040;SDS011;33815;48.386;11.738;2023-04-03T09:58:40;2.10;;;1.90;;
48040;SDS011;33815;48.386;11.738;2023-04-03T10:04:12;7.07;;;1.90;;
48040;SDS011;33815;48.386;11.738;2023-04-03T10:06:43;2.83;;;1.60;;
48040;SDS011;33815;48.386;11.738;2023-04-03T10:09:16;6.32;;;2.15;;
48040;SDS011;33815;48.386;11.738;2023-04-03T10:14:21;3.28;;;1.98;;
48040;SDS011;33815;48.386;11.738;2023-04-03T10:17:31;1.97;;;1.80;;
48040;SDS011;33815;48.386;11.738;2023-04-03T10:19:55;2.50;;;1.65;;
48040;SDS011;33815;48.386;11.738;2023-04-03T10:25:36;1.60;;;1.50;;
48040;SDS011;33815;48.386;11.738;2023-04-03T10:28:12;1.63;;;1.52;;
48040;SDS011;33815;48.386;11.738;2023-04-03T10:31:14;1.85;;;1.52;;
48040;SDS011;33815;48.386;11.738;2023-04-03T10:33:49;1.52;;;1.33;;
48040;SDS011;33815;48.386;11.738;2023-04-03T10:39:02;1.70;;;1.38;;
48040;SDS011;33815;48.386;11.738;2023-04-03T10:47:09;1.50;;;1.30;;
48040;SDS011;33815;48.386;11.738;2023-04-03T10:49:44;2.60;;;1.60;;
48040;SDS011;33815;48.386;11.738;2023-04-03T10:52:37;2.28;;;1.70;;
48040;SDS011;33815;48.386;11.738;2023-04-03T10:55:24;3.83;;;1.88;;
48040;SDS011;33815;48.386;11.738;2023-04-03T10:57:59;2.30;;;1.77;;
48040;SDS011;33815;48.386;11.738;2023-04-03T11:00:34;1.73;;;1.58;;
48040;SDS011;33815;48.386;11.738;2023-04-03T11:03:05;2.40;;;1.42;;
48040;SDS011;33815;48.386;11.738;2023-04-03T11:05:50;2.22;;;1.70;;
48040;SDS011;33815;48.386;11.738;2023-04-03T11:11:22;1.75;;;1.60;;
48040;SDS011;33815;48.386;11.738;2023-04-03T11:13:55;3.30;;;1.55;;
48040;SDS011;33815;48.386;11.738;2023-04-03T11:16:28;3.17;;;1.60;;
48040;SDS011;33815;48.386;11.738;2023-04-03T11:22:39;2.22;;;1.60;;
48040;SDS011;33815;48.386;11.738;2023-04-03T11:27:42;2.08;;;1.40;;
48040;SDS011;33815;48.386;11.738;2023-04-03T11:30:30;6.32;;;1.52;;
48040;SDS011;33815;48.386;11.738;2023-04-03T11:33:02;2.72;;;1.50;;
48040;SDS011;33815;48.386;11.738;2023-04-03T11:35:42;1.65;;;1.55;;
48040;SDS011;33815;48.386;11.738;2023-04-03T11:38:14;1.77;;;1.50;;
48040;SDS011;33815;48.386;11.738;2023-04-03T11:40:46;3.70;;;1.90;;
48040;SDS011;33815;48.386;11.738;2023-04-03T11:43:26;1.13;;;0.98;;
48040;SDS011;33815;48.386;11.738;2023-04-03T11:45:57;1.88;;;1.42;;
48040;SDS011;33815;48.386;11.738;2023-04-03T11:51:00;4.00;;;1.27;;
48040;SDS011;33815;48.386;11.738;2023-04-03T11:53:28;3.28;;;1.92;;
48040;SDS011;33815;48.386;11.738;2023-04-03T11:55:59;3.83;;;1.40;;
48040;SDS011;33815;48.386;11.738;2023-04-03T11:58:26;3.65;;;1.98;;
48040;SDS011;33815;48.386;11.738;2023-04-03T12:01:00;2.53;;;1.40;;
48040;SDS011;33815;48.386;11.738;2023-04-03T12:11:13;1.40;;;1.25;;
48040;SDS011;33815;48.386;11.738;2023-04-03T12:21:19;1.27;;;1.07;;
48040;SDS011;33815;48.386;11.738;2023-04-03T12:23:57;1.85;;;1.35;;
48040;SDS011;33815;48.386;11.738;2023-04-03T12:29:13;2.67;;;1.40;;
48040;SDS011;33815;48.386;11.738;2023-04-03T12:31:45;6.43;;;2.83;;
48040;SDS011;33815;48.386;11.738;2023-04-03T12:35:08;2.95;;;2.53;;
48040;SDS011;33815;48.386;11.738;2023-04-03T12:40:07;1.50;;;1.40;;
48040;SDS011;33815;48.386;11.738;2023-04-03T12:42:54;2.50;;;1.58;;
48040;SDS011;33815;48.386;11.738;2023-04-03T12:45:50;2.00;;;1.48;;
48040;SDS011;33815;48.386;11.738;2023-04-03T12:48:25;1.98;;;1.48;;
48040;SDS011;33815;48.386;11.738;2023-04-03T12:50:53;2.55;;;1.40;;
48040;SDS011;33815;48.386;11.738;2023-04-03T12:53:21;3.45;;;1.42;;
48040;SDS011;33815;48.386;11.738;2023-04-03T12:55:57;3.13;;;1.50;;
48040;SDS011;33815;48.386;11.738;2023-04-03T12:58:42;1.80;;;1.30;;
48040;SDS011;33815;48.386;11.738;2023-04-03T13:01:15;1.67;;;1.58;;
48040;SDS011;33815;48.386;11.738;2023-04-03T13:03:44;2.20;;;1.40;;
48040;SDS011;33815;48.386;11.738;2023-04-03T13:06:45;3.20;;;2.08;;
48040;SDS011;33815;48.386;11.738;2023-04-03T13:09:18;2.70;;;2.28;;
48040;SDS011;33815;48.386;11.738;2023-04-03T13:11:46;2.45;;;1.30;;
48040;SDS011;33815;48.386;11.738;2023-04-03T13:14:18;1.20;;;1.10;;
48040;SDS011;33815;48.386;11.738;2023-04-03T13:16:55;1.48;;;1.13;;
48040;SDS011;33815;48.386;11.738;2023-04-03T13:19:28;1.92;;;1.42;;
48040;SDS011;33815;48.386;11.738;2023-04-03T13:21:57;3.25;;;1.30;;
48040;SDS011;33815;48.386;11.738;2023-04-03T13:24:26;1.48;;;1.35;;
48040;SDS011;33815;48.386;11.738;2023-04-03T13:26:54;3.47;;;1.30;;
48040;SDS011;33815;48.386;11.738;2023-04-03T13:29:22;2.58;;;1.27;;
48040;SDS011;33815;48.386;11.738;2023-04-03T13:31:52;3.38;;;2.35;;
48040;SDS011;33815;48.386;11.738;2023-04-03T13:34:20;1.85;;;1.23;;
48040;SDS011;33815;48.386;11.738;2023-04-03T13:41:42;1.50;;;1.10;;
48040;SDS011;33815;48.386;11.738;2023-04-03T13:46:42;3.83;;;2.30;;
48040;SDS011;33815;48.386;11.738;2023-04-03T13:52:21;2.42;;;1.48;;
48040;SDS011;33815;48.386;11.738;2023-04-03T13:54:51;1.35;;;1.10;;
48040;SDS011;33815;48.386;11.738;2023-04-03T13:57:19;3.22;;;1.35;;
48040;SDS011;33815;48.386;11.738;2023-04-03T13:59:45;3.22;;;1.20;;
48040;SDS011;33815;48.386;11.738;2023-04-03T14:04:53;1.27;;;1.10;;
48040;SDS011;33815;48.386;11.738;2023-04-03T14:07:23;1.38;;;1.20;;
48040;SDS011;33815;48.386;11.738;2023-04-03T14:09:49;1.25;;;1.13;;
48040;SDS011;33815;48.386;11.738;2023-04-03T14:12:17;4.53;;;1.25;;
48040;SDS011;33815;48.386;11.738;2023-04-03T14:14:49;1.50;;;1.40;;
48040;SDS011;33815;48.386;11.738;2023-04-03T14:17:16;1.35;;;1.23;;
48040;SDS011;33815;48.386;11.738;2023-04-03T14:19:43;1.52;;;1.25;;
48040;SDS011;33815;48.386;11.738;2023-04-03T14:22:15;2.60;;;1.13;;
48040;SDS011;33815;48.386;11.738;2023-04-03T14:24:44;3.22;;;2.55;;
48040;SDS011;33815;48.386;11.738;2023-04-03T14:27:15;3.42;;;1.55;;
48040;SDS011;33815;48.386;11.738;2023-04-03T14:29:43;1.92;;;1.20;;
48040;SDS011;33815;48.386;11.738;2023-04-03T14:32:11;1.58;;;1.10;;
48040;SDS011;33815;48.386;11.738;2023-04-03T14:34:38;1.95;;;1.20;;
48040;SDS011;33815;48.386;11.738;2023-04-03T14:37:04;4.03;;;1.65;;
48040;SDS011;33815;48.386;11.738;2023-04-03T14:39:30;1.67;;;1.48;;
48040;SDS011;33815;48.386;11.738;2023-04-03T14:41:55;1.52;;;1.10;;
48040;SDS011;33815;48.386;11.738;2023-04-03T14:44:21;2.78;;;1.50;;
48040;SDS011;33815;48.386;11.738;2023-04-03T14:46:46;2.70;;;1.15;;
48040;SDS011;33815;48.386;11.738;2023-04-03T14:49:13;1.98;;;1.55;;
48040;SDS011;33815;48.386;11.738;2023-04-03T14:51:40;3.67;;;1.45;;
48040;SDS011;33815;48.386;11.738;2023-04-03T14:54:09;2.63;;;1.67;;
48040;SDS011;33815;48.386;11.738;2023-04-03T14:56:43;1.65;;;1.10;;
48040;SDS011;33815;48.386;11.738;2023-04-03T14:59:09;2.28;;;1.50;;
48040;SDS011;33815;48.386;11.738;2023-04-03T15:01:37;1.20;;;1.10;;
48040;SDS011;33815;48.386;11.738;2023-04-03T15:04:05;1.80;;;1.17;;
48040;SDS011;33815;48.386;11.738;2023-04-03T15:06:36;2.17;;;1.45;;
48040;SDS011;33815;48.386;11.738;2023-04-03T15:09:02;1.20;;;1.08;;
48040;SDS011;33815;48.386;11.738;2023-04-03T15:11:28;3.45;;;1.40;;
48040;SDS011;33815;48.386;11.738;2023-04-03T15:13:53;2.90;;;1.70;;
48040;SDS011;33815;48.386;11.738;2023-04-03T15:16:18;1.65;;;1.30;;
48040;SDS011;33815;48.386;11.738;2023-04-03T15:18:44;4.57;;;1.50;;
48040;SDS011;33815;48.386;11.738;2023-04-03T15:21:11;2.88;;;1.38;;
48040;SDS011;33815;48.386;11.738;2023-04-03T15:23:37;3.30;;;1.80;;
48040;SDS011;33815;48.386;11.738;2023-04-03T15:26:03;3.28;;;1.67;;
48040;SDS011;33815;48.386;11.738;2023-04-03T15:28:30;2.17;;;1.55;;
48040;SDS011;33815;48.386;11.738;2023-04-03T15:31:06;2.80;;;1.42;;
48040;SDS011;33815;48.386;11.738;2023-04-03T15:33:33;3.22;;;1.45;;
48040;SDS011;33815;48.386;11.738;2023-04-03T15:35:59;2.85;;;1.10;;
48040;SDS011;33815;48.386;11.738;2023-04-03T15:38:24;3.00;;;1.30;;
48040;SDS011;33815;48.386;11.738;2023-04-03T15:40:50;3.58;;;1.52;;
48040;SDS011;33815;48.386;11.738;2023-04-03T15:43:15;1.80;;;1.35;;
48040;SDS011;33815;48.386;11.738;2023-04-03T15:45:41;1.70;;;1.27;;
48040;SDS011;33815;48.386;11.738;2023-04-03T15:48:08;4.57;;;1.65;;
48040;SDS011;33815;48.386;11.738;2023-04-03T15:50:34;3.22;;;1.63;;
48040;SDS011;33815;48.386;11.738;2023-04-03T15:53:00;1.20;;;1.10;;
48040;SDS011;33815;48.386;11.738;2023-04-03T15:55:27;1.67;;;1.35;;
48040;SDS011;33815;48.386;11.738;2023-04-03T15:57:54;4.18;;;1.45;;
48040;SDS011;33815;48.386;11.738;2023-04-03T16:00:21;3.17;;;1.77;;
48040;SDS011;33815;48.386;11.738;2023-04-03T16:02:47;1.52;;;1.40;;
48040;SDS011;33815;48.386;11.738;2023-04-03T16:05:15;2.90;;;1.40;;
48040;SDS011;33815;48.386;11.738;2023-04-03T16:07:42;2.42;;;1.38;;